sensor_id;sensor_type;location;lat;lon;timestamp;pressure;altitude;pressure_sealevel;temperature;humidity
64679;BME280;51094;53.864;27.676;2024-03-02T00:00:51;99850.66;;;3.15;82.68
64679;BME280;51094;53.864;27.676;2024-03-02T00:03:19;99902.66;;;3.50;82.61
64679;BME280;51094;53.864;27.676;2024-03-02T00:05:50;99856.66;;;3.14;82.52
64679;BME280;51094;53.864;27.676;2024-03-02T00:08:24;99916.28;;;3.53;82.31
64679;BME280;51094;53.864;27.676;2024-03-02T00:10:58;99911.03;;;3.56;82.45
64679;BME280;51094;53.864;27.676;2024-03-02T00:13:29;99909.25;;;3.58;82.30
64679;BME280;51094;53.864;27.676;2024-03-02T00:15:58;99900.75;;;3.56;82.15
64679;BME280;51094;53.864;27.676;2024-03-02T00:18:32;99863.13;;;3.27;81.92
64679;BME280;51094;53.864;27.676;2024-03-02T00:21:00;99904.41;;;3.49;82.54
64679;BME280;51094;53.864;27.676;2024-03-02T00:23:30;99924.44;;;3.40;82.90
64679;BME280;51094;53.864;27.676;2024-03-02T00:25:58;99885.19;;;3.34;82.79
64679;BME280;51094;53.864;27.676;2024-03-02T00:28:33;99911.28;;;3.49;83.05
64679;BME280;51094;53.864;27.676;2024-03-02T00:31:09;99905.47;;;3.44;82.26
64679;BME280;51094;53.864;27.676;2024-03-02T00:36:21;99887.63;;;3.39;82.75
64679;BME280;51094;53.864;27.676;2024-03-02T00:38:51;99897.47;;;3.51;82.53
64679;BME280;51094;53.864;27.676;2024-03-02T00:41:23;99899.31;;;3.48;82.48
64679;BME280;51094;53.864;27.676;2024-03-02T00:44:00;99854.75;;;3.21;82.20
64679;BME280;51094;53.864;27.676;2024-03-02T00:46:40;99886.69;;;3.42;82.20
64679;BME280;51094;53.864;27.676;2024-03-02T00:51:39;99880.22;;;3.28;82.49
64679;BME280;51094;53.864;27.676;2024-03-02T00:54:10;99886.97;;;3.32;82.20
64679;BME280;51094;53.864;27.676;2024-03-02T00:56:37;99885.19;;;3.34;82.36
64679;BME280;51094;53.864;27.676;2024-03-02T00:59:04;99876.88;;;3.26;82.52
64679;BME280;51094;53.864;27.676;2024-03-02T01:01:31;99857.47;;;3.16;82.39
64679;BME280;51094;53.864;27.676;2024-03-02T01:03:58;99902.09;;;3.42;82.63
64679;BME280;51094;53.864;27.676;2024-03-02T01:06:25;99902.09;;;3.42;82.54
64679;BME280;51094;53.864;27.676;2024-03-02T01:08:55;99913.28;;;3.41;82.40
64679;BME280;51094;53.864;27.676;2024-03-02T01:11:22;99838.97;;;3.05;82.84
64679;BME280;51094;53.864;27.676;2024-03-02T01:13:50;99907.16;;;3.45;82.60
64679;BME280;51094;53.864;27.676;2024-03-02T01:16:18;99908.00;;;3.45;82.72
64679;BME280;51094;53.864;27.676;2024-03-02T01:18:45;99918.91;;;3.52;82.55
64679;BME280;51094;53.864;27.676;2024-03-02T01:21:15;99918.72;;;3.58;82.81
64679;BME280;51094;53.864;27.676;2024-03-02T01:23:43;99913.38;;;3.64;82.13
64679;BME280;51094;53.864;27.676;2024-03-02T01:26:11;99908.28;;;3.62;82.08
64679;BME280;51094;53.864;27.676;2024-03-02T01:28:38;99893.59;;;3.40;82.23
64679;BME280;51094;53.864;27.676;2024-03-02T01:31:05;99893.94;;;3.55;82.60
64679;BME280;51094;53.864;27.676;2024-03-02T01:33:32;99887.28;;;3.48;82.24
64679;BME280;51094;53.864;27.676;2024-03-02T01:35:59;99851.94;;;3.28;81.85
64679;BME280;51094;53.864;27.676;2024-03-02T01:38:26;99872.84;;;3.46;82.14
64679;BME280;51094;53.864;27.676;2024-03-02T01:40:55;99881.88;;;3.57;81.95
64679;BME280;51094;53.864;27.676;2024-03-02T01:43:23;99892.28;;;3.53;81.77
64679;BME280;51094;53.864;27.676;2024-03-02T01:45:51;99696.53;;;2.33;81.77
64679;BME280;51094;53.864;27.676;2024-03-02T01:48:18;99873.16;;;3.35;81.94
64679;BME280;51094;53.864;27.676;2024-03-02T01:50:46;99886.59;;;3.45;81.83
64679;BME280;51094;53.864;27.676;2024-03-02T01:53:13;99858.63;;;3.34;82.36
64679;BME280;51094;53.864;27.676;2024-03-02T01:55:40;99882.16;;;3.48;82.34
64679;BME280;51094;53.864;27.676;2024-03-02T01:58:07;99883.97;;;3.46;81.77
64679;BME280;51094;53.864;27.676;2024-03-02T02:00:34;99884.00;;;3.45;82.06
64679;BME280;51094;53.864;27.676;2024-03-02T02:03:02;99852.13;;;3.22;81.84
64679;BME280;51094;53.864;27.676;2024-03-02T02:05:29;99865.69;;;3.27;82.05
64679;BME280;51094;53.864;27.676;2024-03-02T02:07:58;99878.34;;;3.33;82.34
64679;BME280;51094;53.864;27.676;2024-03-02T02:10:25;99800.03;;;2.91;82.17
64679;BME280;51094;53.864;27.676;2024-03-02T02:12:52;99838.50;;;3.20;82.34
64679;BME280;51094;53.864;27.676;2024-03-02T02:17:57;99791.59;;;2.87;81.85
64679;BME280;51094;53.864;27.676;2024-03-02T02:20:26;99699.50;;;2.19;81.87
64679;BME280;51094;53.864;27.676;2024-03-02T02:23:00;99861.81;;;3.14;82.39
64679;BME280;51094;53.864;27.676;2024-03-02T02:25:30;99790.41;;;2.70;82.49
64679;BME280;51094;53.864;27.676;2024-03-02T02:28:00;99816.34;;;2.90;82.74
64679;BME280;51094;53.864;27.676;2024-03-02T02:30:30;99908.25;;;3.08;82.30
64679;BME280;51094;53.864;27.676;2024-03-02T02:33:00;99813.84;;;2.87;82.55
64679;BME280;51094;53.864;27.676;2024-03-02T02:35:32;99534.22;;;1.15;82.26
64679;BME280;51094;53.864;27.676;2024-03-02T02:37:59;99830.94;;;2.88;82.39
64679;BME280;51094;53.864;27.676;2024-03-02T02:40:27;99825.84;;;2.86;82.82
64679;BME280;51094;53.864;27.676;2024-03-02T02:42:57;99849.56;;;2.96;82.42
64679;BME280;51094;53.864;27.676;2024-03-02T02:45:28;99838.56;;;2.91;82.27
64679;BME280;51094;53.864;27.676;2024-03-02T02:48:00;99831.19;;;2.80;82.64
64679;BME280;51094;53.864;27.676;2024-03-02T02:50:37;99819.28;;;2.78;82.50
64679;BME280;51094;53.864;27.676;2024-03-02T02:53:05;99685.88;;;1.89;82.62
64679;BME280;51094;53.864;27.676;2024-03-02T02:55:35;99827.06;;;2.75;82.71
64679;BME280;51094;53.864;27.676;2024-03-02T02:58:07;99845.28;;;2.95;82.68
64679;BME280;51094;53.864;27.676;2024-03-02T03:00:36;99819.06;;;2.56;82.23
64679;BME280;51094;53.864;27.676;2024-03-02T03:03:03;99765.22;;;2.25;82.05
64679;BME280;51094;53.864;27.676;2024-03-02T03:05:31;99808.06;;;2.52;82.55
64679;BME280;51094;53.864;27.676;2024-03-02T03:07:58;99805.56;;;2.49;82.23
64679;BME280;51094;53.864;27.676;2024-03-02T03:10:25;99828.41;;;2.58;82.50
64679;BME280;51094;53.864;27.676;2024-03-02T03:12:54;99807.53;;;2.41;82.31
64679;BME280;51094;53.864;27.676;2024-03-02T03:15:26;99776.63;;;2.15;82.11
64679;BME280;51094;53.864;27.676;2024-03-02T03:17:55;99689.06;;;1.68;82.46
64679;BME280;51094;53.864;27.676;2024-03-02T03:20:22;99847.16;;;2.60;82.46
64679;BME280;51094;53.864;27.676;2024-03-02T03:22:50;99845.56;;;2.58;82.72
64679;BME280;51094;53.864;27.676;2024-03-02T03:25:17;99797.56;;;2.30;82.44
64679;BME280;51094;53.864;27.676;2024-03-02T03:27:44;99831.34;;;2.46;82.93
64679;BME280;51094;53.864;27.676;2024-03-02T03:30:11;99796.84;;;2.25;82.88
64679;BME280;51094;53.864;27.676;2024-03-02T03:32:38;99816.19;;;2.37;82.42
64679;BME280;51094;53.864;27.676;2024-03-02T03:35:06;99793.97;;;2.07;82.46
64679;BME280;51094;53.864;27.676;2024-03-02T03:37:33;99850.91;;;2.50;82.80
64679;BME280;51094;53.864;27.676;2024-03-02T03:40:06;99831.50;;;2.40;82.84
64679;BME280;51094;53.864;27.676;2024-03-02T03:42:38;99828.84;;;2.43;82.85
64679;BME280;51094;53.864;27.676;2024-03-02T03:45:06;99828.94;;;2.40;83.33
64679;BME280;51094;53.864;27.676;2024-03-02T03:47:33;99850.78;;;2.55;82.73
64679;BME280;51094;53.864;27.676;2024-03-02T03:50:01;99834.88;;;2.42;82.64
64679;BME280;51094;53.864;27.676;2024-03-02T03:52:30;99839.75;;;2.51;82.91
64679;BME280;51094;53.864;27.676;2024-03-02T03:55:00;99850.53;;;2.62;82.72
64679;BME280;51094;53.864;27.676;2024-03-02T03:57:28;99847.03;;;2.65;82.86
64679;BME280;51094;53.864;27.676;2024-03-02T03:59:55;99840.41;;;2.58;83.29
64679;BME280;51094;53.864;27.676;2024-03-02T04:02:22;99837.69;;;2.62;82.59
64679;BME280;51094;53.864;27.676;2024-03-02T04:04:49;99664.78;;;1.49;82.74
64679;BME280;51094;53.864;27.676;2024-03-02T04:07:18;99864.44;;;2.55;82.55
64679;BME280;51094;53.864;27.676;2024-03-02T04:09:48;99847.44;;;2.51;82.61
64679;BME280;51094;53.864;27.676;2024-03-02T04:12:15;99857.69;;;2.53;82.45
64679;BME280;51094;53.864;27.676;2024-03-02T04:14:46;99853.38;;;2.53;82.85
64679;BME280;51094;53.864;27.676;2024-03-02T04:17:13;99855.16;;;2.51;82.42
64679;BME280;51094;53.864;27.676;2024-03-02T04:19:40;99854.22;;;2.54;83.21
64679;BME280;51094;53.864;27.676;2024-03-02T04:22:08;99849.97;;;2.53;82.59
64679;BME280;51094;53.864;27.676;2024-03-02T04:24:47;99844.94;;;2.50;82.63
64679;BME280;51094;53.864;27.676;2024-03-02T04:27:19;99850.09;;;2.48;82.67
64679;BME280;51094;53.864;27.676;2024-03-02T04:29:46;99844.97;;;2.48;82.69
64679;BME280;51094;53.864;27.676;2024-03-02T04:32:14;99786.28;;;2.07;82.36
64679;BME280;51094;53.864;27.676;2024-03-02T04:34:41;99806.53;;;2.16;82.64
64679;BME280;51094;53.864;27.676;2024-03-02T04:37:08;99781.22;;;2.04;82.64
64679;BME280;51094;53.864;27.676;2024-03-02T04:39:36;99803.34;;;2.08;82.39
64679;BME280;51094;53.864;27.676;2024-03-02T04:42:03;99873.69;;;2.30;82.53
64679;BME280;51094;53.864;27.676;2024-03-02T04:44:30;99838.09;;;2.18;82.72
64679;BME280;51094;53.864;27.676;2024-03-02T04:46:59;99844.75;;;2.25;82.69
64679;BME280;51094;53.864;27.676;2024-03-02T04:49:26;99841.31;;;2.26;82.70
64679;BME280;51094;53.864;27.676;2024-03-02T04:51:54;99782.31;;;1.95;82.91
64679;BME280;51094;53.864;27.676;2024-03-02T04:54:21;99823.50;;;2.20;82.61
64679;BME280;51094;53.864;27.676;2024-03-02T04:56:49;99842.94;;;2.28;82.55
64679;BME280;51094;53.864;27.676;2024-03-02T04:59:17;99840.50;;;2.24;82.38
64679;BME280;51094;53.864;27.676;2024-03-02T05:01:47;99817.91;;;2.07;82.17
64679;BME280;51094;53.864;27.676;2024-03-02T05:04:17;99839.09;;;2.14;82.34
64679;BME280;51094;53.864;27.676;2024-03-02T05:06:48;99847.69;;;2.13;82.91
64679;BME280;51094;53.864;27.676;2024-03-02T05:09:20;99748.22;;;1.60;82.61
64679;BME280;51094;53.864;27.676;2024-03-02T05:11:51;99833.25;;;2.09;82.49
64679;BME280;51094;53.864;27.676;2024-03-02T05:14:37;99743.13;;;1.59;82.72
64679;BME280;51094;53.864;27.676;2024-03-02T05:17:08;99836.72;;;2.06;82.57
64679;BME280;51094;53.864;27.676;2024-03-02T05:19:45;99808.97;;;1.89;82.80
64679;BME280;51094;53.864;27.676;2024-03-02T05:22:15;99838.56;;;2.01;82.34
64679;BME280;51094;53.864;27.676;2024-03-02T05:24:47;99831.66;;;1.72;82.52
64679;BME280;51094;53.864;27.676;2024-03-02T05:27:17;99819.28;;;1.86;82.85
64679;BME280;51094;53.864;27.676;2024-03-02T05:29:47;99800.97;;;1.69;82.62
64679;BME280;51094;53.864;27.676;2024-03-02T05:32:14;99820.06;;;1.90;82.40
64679;BME280;51094;53.864;27.676;2024-03-02T05:34:41;99837.00;;;1.95;82.62
64679;BME280;51094;53.864;27.676;2024-03-02T05:37:13;99825.19;;;1.90;82.74
64679;BME280;51094;53.864;27.676;2024-03-02T05:39:47;99841.19;;;1.99;82.75
64679;BME280;51094;53.864;27.676;2024-03-02T05:42:18;99803.34;;;1.75;82.87
64679;BME280;51094;53.864;27.676;2024-03-02T05:44:54;99849.69;;;2.02;82.83
64679;BME280;51094;53.864;27.676;2024-03-02T05:47:25;99842.19;;;1.94;82.72
64679;BME280;51094;53.864;27.676;2024-03-02T05:50:01;99820.34;;;1.79;82.84
64679;BME280;51094;53.864;27.676;2024-03-02T05:52:35;99856.41;;;2.06;83.06
64679;BME280;51094;53.864;27.676;2024-03-02T05:55:08;99523.44;;;0.05;82.64
64679;BME280;51094;53.864;27.676;2024-03-02T05:57:45;99851.69;;;1.90;82.75
64679;BME280;51094;53.864;27.676;2024-03-02T06:00:34;99832.84;;;1.91;82.53
64679;BME280;51094;53.864;27.676;2024-03-02T06:03:03;99856.03;;;2.19;82.86
64679;BME280;51094;53.864;27.676;2024-03-02T06:05:31;99844.00;;;2.21;83.08
64679;BME280;51094;53.864;27.676;2024-03-02T06:07:58;99864.25;;;2.32;82.80
64679;BME280;51094;53.864;27.676;2024-03-02T06:10:25;99826.22;;;2.15;82.58
64679;BME280;51094;53.864;27.676;2024-03-02T06:12:52;99858.09;;;2.38;82.66
64679;BME280;51094;53.864;27.676;2024-03-02T06:15:21;99659.53;;;1.22;82.30
64679;BME280;51094;53.864;27.676;2024-03-02T06:17:48;99862.84;;;2.51;82.37
64679;BME280;51094;53.864;27.676;2024-03-02T06:20:16;99862.63;;;2.59;82.60
64679;BME280;51094;53.864;27.676;2024-03-02T06:22:43;99863.28;;;2.65;82.00
64679;BME280;51094;53.864;27.676;2024-03-02T06:25:10;99859.75;;;2.70;82.04
64679;BME280;51094;53.864;27.676;2024-03-02T06:27:37;99858.22;;;2.62;81.54
64679;BME280;51094;53.864;27.676;2024-03-02T06:30:15;99860.28;;;2.81;81.94
64679;BME280;51094;53.864;27.676;2024-03-02T06:32:45;99858.31;;;2.89;81.39
64679;BME280;51094;53.864;27.676;2024-03-02T06:35:12;99842.13;;;2.87;81.38
64679;BME280;51094;53.864;27.676;2024-03-02T06:37:42;99847.44;;;2.81;82.00
64679;BME280;51094;53.864;27.676;2024-03-02T06:40:09;99860.13;;;3.13;81.43
64679;BME280;51094;53.864;27.676;2024-03-02T06:42:41;99835.56;;;3.05;80.53
64679;BME280;51094;53.864;27.676;2024-03-02T06:45:08;99633.78;;;1.87;80.93
64679;BME280;51094;53.864;27.676;2024-03-02T06:47:38;99868.13;;;3.32;80.83
64679;BME280;51094;53.864;27.676;2024-03-02T06:50:05;99870.47;;;3.40;80.96
64679;BME280;51094;53.864;27.676;2024-03-02T06:52:33;99815.69;;;3.10;80.00
64679;BME280;51094;53.864;27.676;2024-03-02T06:55:01;99868.34;;;3.51;80.24
64679;BME280;51094;53.864;27.676;2024-03-02T06:57:31;99677.31;;;2.46;79.48
64679;BME280;51094;53.864;27.676;2024-03-02T07:00:01;99861.84;;;3.67;79.53
64679;BME280;51094;53.864;27.676;2024-03-02T07:02:31;99856.41;;;3.76;79.53
64679;BME280;51094;53.864;27.676;2024-03-02T07:05:01;99870.75;;;3.83;79.06
64679;BME280;51094;53.864;27.676;2024-03-02T07:07:28;99857.72;;;3.88;79.36
64679;BME280;51094;53.864;27.676;2024-03-02T07:09:56;99862.53;;;3.97;79.37
64679;BME280;51094;53.864;27.676;2024-03-02T07:12:25;99776.69;;;3.50;78.67
64679;BME280;51094;53.864;27.676;2024-03-02T07:14:54;99783.09;;;3.63;78.60
64679;BME280;51094;53.864;27.676;2024-03-02T07:17:31;99711.31;;;3.32;78.17
64679;BME280;51094;53.864;27.676;2024-03-02T07:20:03;99775.38;;;3.63;77.47
64679;BME280;51094;53.864;27.676;2024-03-02T07:22:31;99841.47;;;4.11;77.91
64679;BME280;51094;53.864;27.676;2024-03-02T07:24:57;99666.50;;;3.14;77.54
64679;BME280;51094;53.864;27.676;2024-03-02T07:27:28;99798.56;;;4.11;78.08
64679;BME280;51094;53.864;27.676;2024-03-02T07:30:00;99771.19;;;4.09;77.32
64679;BME280;51094;53.864;27.676;2024-03-02T07:32:28;99845.88;;;4.55;77.42
64679;BME280;51094;53.864;27.676;2024-03-02T07:34:55;99852.19;;;4.70;77.52
64679;BME280;51094;53.864;27.676;2024-03-02T07:37:25;99845.06;;;4.77;77.32
64679;BME280;51094;53.864;27.676;2024-03-02T07:39:55;99678.56;;;3.85;77.38
64679;BME280;51094;53.864;27.676;2024-03-02T07:42:28;99762.16;;;4.22;76.05
64679;BME280;51094;53.864;27.676;2024-03-02T07:45:08;99800.69;;;4.70;75.68
64679;BME280;51094;53.864;27.676;2024-03-02T07:47:38;99724.78;;;4.33;75.28
64679;BME280;51094;53.864;27.676;2024-03-02T07:50:05;99851.72;;;5.26;75.89
64679;BME280;51094;53.864;27.676;2024-03-02T07:52:36;99853.13;;;5.34;75.24
64679;BME280;51094;53.864;27.676;2024-03-02T07:55:20;99816.88;;;5.38;75.26
64679;BME280;51094;53.864;27.676;2024-03-02T07:57:50;99799.31;;;5.47;75.09
64679;BME280;51094;53.864;27.676;2024-03-02T08:00:20;99830.91;;;5.73;73.62
64679;BME280;51094;53.864;27.676;2024-03-02T08:02:47;99849.38;;;5.84;73.17
64679;BME280;51094;53.864;27.676;2024-03-02T08:05:18;99831.44;;;5.81;72.49
64679;BME280;51094;53.864;27.676;2024-03-02T08:07:48;99775.06;;;5.51;72.07
64679;BME280;51094;53.864;27.676;2024-03-02T08:10:19;99812.03;;;5.92;72.99
64679;BME280;51094;53.864;27.676;2024-03-02T08:12:48;99838.06;;;6.27;72.96
64679;BME280;51094;53.864;27.676;2024-03-02T08:15:15;99830.69;;;6.38;71.96
64679;BME280;51094;53.864;27.676;2024-03-02T08:17:42;99831.81;;;6.51;71.01
64679;BME280;51094;53.864;27.676;2024-03-02T08:20:16;99832.16;;;6.62;71.76
64679;BME280;51094;53.864;27.676;2024-03-02T08:22:43;99732.03;;;6.11;68.85
64679;BME280;51094;53.864;27.676;2024-03-02T08:25:10;99838.31;;;6.60;69.39
64679;BME280;51094;53.864;27.676;2024-03-02T08:27:39;99829.72;;;6.59;68.81
64679;BME280;51094;53.864;27.676;2024-03-02T08:30:10;99818.47;;;6.60;69.66
64679;BME280;51094;53.864;27.676;2024-03-02T08:32:37;99837.53;;;6.77;69.66
64679;BME280;51094;53.864;27.676;2024-03-02T08:35:09;99817.50;;;6.63;68.99
64679;BME280;51094;53.864;27.676;2024-03-02T08:37:39;99832.31;;;6.78;68.23
64679;BME280;51094;53.864;27.676;2024-03-02T08:40:10;99839.72;;;6.86;66.98
64679;BME280;51094;53.864;27.676;2024-03-02T08:42:44;99791.16;;;6.74;67.95
64679;BME280;51094;53.864;27.676;2024-03-02T08:45:16;99822.47;;;7.04;66.94
64679;BME280;51094;53.864;27.676;2024-03-02T08:47:43;99807.38;;;7.13;67.72
64679;BME280;51094;53.864;27.676;2024-03-02T08:50:11;99825.97;;;7.39;65.99
64679;BME280;51094;53.864;27.676;2024-03-02T08:52:42;99818.28;;;7.37;65.76
64679;BME280;51094;53.864;27.676;2024-03-02T08:55:09;99826.13;;;7.53;65.41
64679;BME280;51094;53.864;27.676;2024-03-02T08:57:38;99841.00;;;7.66;64.87
64679;BME280;51094;53.864;27.676;2024-03-02T09:00:10;99787.63;;;7.47;63.89
64679;BME280;51094;53.864;27.676;2024-03-02T09:02:38;99832.06;;;7.89;63.61
64679;BME280;51094;53.864;27.676;2024-03-02T09:05:08;99806.47;;;7.83;60.76
64679;BME280;51094;53.864;27.676;2024-03-02T09:07:38;99826.97;;;7.88;60.37
64679;BME280;51094;53.864;27.676;2024-03-02T09:10:11;99785.03;;;7.64;59.98
64679;BME280;51094;53.864;27.676;2024-03-02T09:12:38;99824.13;;;7.92;59.58
64679;BME280;51094;53.864;27.676;2024-03-02T09:15:06;99805.28;;;7.73;60.35
64679;BME280;51094;53.864;27.676;2024-03-02T09:17:34;99819.28;;;7.86;60.23
64679;BME280;51094;53.864;27.676;2024-03-02T09:20:01;99817.59;;;8.02;60.66
64679;BME280;51094;53.864;27.676;2024-03-02T09:22:28;99758.81;;;7.87;59.80
64679;BME280;51094;53.864;27.676;2024-03-02T09:24:55;99829.00;;;8.31;60.16
64679;BME280;51094;53.864;27.676;2024-03-02T09:27:25;99815.72;;;8.55;60.88
64679;BME280;51094;53.864;27.676;2024-03-02T09:30:00;99822.31;;;8.76;59.76
64679;BME280;51094;53.864;27.676;2024-03-02T09:32:27;99825.19;;;8.87;59.86
64679;BME280;51094;53.864;27.676;2024-03-02T09:35:04;99789.03;;;9.00;59.01
64679;BME280;51094;53.864;27.676;2024-03-02T09:37:33;99820.03;;;9.17;58.96
64679;BME280;51094;53.864;27.676;2024-03-02T09:40:04;99802.06;;;9.14;57.78
64679;BME280;51094;53.864;27.676;2024-03-02T09:42:33;99812.25;;;9.33;55.85
64679;BME280;51094;53.864;27.676;2024-03-02T09:45:00;99751.72;;;9.03;53.39
64679;BME280;51094;53.864;27.676;2024-03-02T09:47:37;99803.88;;;9.28;53.48
64679;BME280;51094;53.864;27.676;2024-03-02T09:50:05;99799.94;;;9.37;54.22
64679;BME280;51094;53.864;27.676;2024-03-02T09:52:36;99802.75;;;9.48;52.75
64679;BME280;51094;53.864;27.676;2024-03-02T09:55:06;99768.78;;;9.37;52.29
64679;BME280;51094;53.864;27.676;2024-03-02T09:57:36;99775.34;;;9.72;52.70
64679;BME280;51094;53.864;27.676;2024-03-02T10:00:09;99786.50;;;10.17;53.62
64679;BME280;51094;53.864;27.676;2024-03-02T10:02:44;99807.97;;;10.63;51.90
64679;BME280;51094;53.864;27.676;2024-03-02T10:05:11;99780.09;;;10.51;50.29
64679;BME280;51094;53.864;27.676;2024-03-02T10:07:42;99802.97;;;10.87;49.79
64679;BME280;51094;53.864;27.676;2024-03-02T10:10:15;99803.69;;;11.03;48.94
64679;BME280;51094;53.864;27.676;2024-03-02T10:12:42;99674.53;;;10.48;49.09
64679;BME280;51094;53.864;27.676;2024-03-02T10:15:10;99804.94;;;11.37;48.52
64679;BME280;51094;53.864;27.676;2024-03-02T10:17:41;99787.44;;;11.39;47.02
64679;BME280;51094;53.864;27.676;2024-03-02T10:20:26;99725.22;;;11.09;48.94
64679;BME280;51094;53.864;27.676;2024-03-02T10:22:56;99740.44;;;11.15;47.09
64679;BME280;51094;53.864;27.676;2024-03-02T10:25:36;99783.22;;;11.63;45.57
64679;BME280;51094;53.864;27.676;2024-03-02T10:28:17;99791.91;;;11.89;46.09
64679;BME280;51094;53.864;27.676;2024-03-02T10:30:48;99805.56;;;12.18;45.31
64679;BME280;51094;53.864;27.676;2024-03-02T10:33:17;99778.63;;;12.43;46.09
64679;BME280;51094;53.864;27.676;2024-03-02T10:35:44;99784.88;;;12.53;45.15
64679;BME280;51094;53.864;27.676;2024-03-02T10:38:11;99770.72;;;12.69;42.74
64679;BME280;51094;53.864;27.676;2024-03-02T10:40:39;99782.09;;;12.68;44.04
64679;BME280;51094;53.864;27.676;2024-03-02T10:43:10;99789.59;;;12.85;44.21
64679;BME280;51094;53.864;27.676;2024-03-02T10:45:38;99737.53;;;12.71;42.24
64679;BME280;51094;53.864;27.676;2024-03-02T10:48:06;99742.53;;;12.74;40.36
64679;BME280;51094;53.864;27.676;2024-03-02T10:50:34;99819.91;;;12.62;40.73
64679;BME280;51094;53.864;27.676;2024-03-02T10:53:01;99768.75;;;12.59;39.83
64679;BME280;51094;53.864;27.676;2024-03-02T10:55:29;99767.34;;;12.79;39.85
64679;BME280;51094;53.864;27.676;2024-03-02T10:58:00;99757.75;;;12.80;39.50
64679;BME280;51094;53.864;27.676;2024-03-02T11:00:33;99785.19;;;13.09;39.73
64679;BME280;51094;53.864;27.676;2024-03-02T11:03:05;99763.72;;;13.29;39.17
64679;BME280;51094;53.864;27.676;2024-03-02T11:05:36;99765.97;;;13.69;38.31
64679;BME280;51094;53.864;27.676;2024-03-02T11:08:08;99763.28;;;14.15;37.58
64679;BME280;51094;53.864;27.676;2024-03-02T11:10:53;99764.81;;;14.07;37.69
64679;BME280;51094;53.864;27.676;2024-03-02T11:13:32;99805.25;;;14.14;37.43
64679;BME280;51094;53.864;27.676;2024-03-02T11:16:14;99230.03;;;10.83;37.55
64679;BME280;51094;53.864;27.676;2024-03-02T11:18:47;99681.59;;;13.56;38.92
64679;BME280;51094;53.864;27.676;2024-03-02T11:21:17;99763.97;;;14.06;38.36
64679;BME280;51094;53.864;27.676;2024-03-02T11:23:44;99757.81;;;14.18;37.59
64679;BME280;51094;53.864;27.676;2024-03-02T11:26:21;99568.94;;;12.92;37.78
64679;BME280;51094;53.864;27.676;2024-03-02T11:28:51;99751.59;;;14.30;37.49
64679;BME280;51094;53.864;27.676;2024-03-02T11:31:18;99743.50;;;14.67;36.86
64679;BME280;51094;53.864;27.676;2024-03-02T11:33:45;99734.38;;;14.93;35.92
64679;BME280;51094;53.864;27.676;2024-03-02T11:36:13;99748.31;;;15.47;35.79
64679;BME280;51094;53.864;27.676;2024-03-02T11:38:43;99735.84;;;15.39;35.15
64679;BME280;51094;53.864;27.676;2024-03-02T11:41:15;99745.88;;;15.34;35.99
64679;BME280;51094;53.864;27.676;2024-03-02T11:43:44;99740.50;;;15.36;35.33
64679;BME280;51094;53.864;27.676;2024-03-02T11:46:11;99760.09;;;15.52;34.88
64679;BME280;51094;53.864;27.676;2024-03-02T11:48:41;99707.56;;;15.84;34.61
64679;BME280;51094;53.864;27.676;2024-03-02T11:51:11;99707.34;;;16.47;33.66
64679;BME280;51094;53.864;27.676;2024-03-02T11:53:39;99730.97;;;16.87;33.01
64679;BME280;51094;53.864;27.676;2024-03-02T11:56:09;99721.56;;;16.75;33.35
64679;BME280;51094;53.864;27.676;2024-03-02T11:58:39;99725.16;;;16.83;33.27
64679;BME280;51094;53.864;27.676;2024-03-02T12:01:08;99700.53;;;16.94;33.13
64679;BME280;51094;53.864;27.676;2024-03-02T12:03:35;99693.91;;;17.09;34.56
64679;BME280;51094;53.864;27.676;2024-03-02T12:06:06;99768.03;;;17.42;32.91
64679;BME280;51094;53.864;27.676;2024-03-02T12:08:36;99732.63;;;17.07;32.64
64679;BME280;51094;53.864;27.676;2024-03-02T12:11:04;99718.38;;;17.19;32.99
64679;BME280;51094;53.864;27.676;2024-03-02T12:13:38;99704.38;;;17.38;33.52
64679;BME280;51094;53.864;27.676;2024-03-02T12:16:07;99737.78;;;17.84;32.68
64679;BME280;51094;53.864;27.676;2024-03-02T12:18:34;99730.53;;;18.06;32.57
64679;BME280;51094;53.864;27.676;2024-03-02T12:21:05;99767.28;;;18.25;31.96
64679;BME280;51094;53.864;27.676;2024-03-02T12:23:38;99697.88;;;18.26;31.88
64679;BME280;51094;53.864;27.676;2024-03-02T12:26:07;99708.59;;;18.70;30.62
64679;BME280;51094;53.864;27.676;2024-03-02T12:28:37;99708.97;;;19.10;29.80
64679;BME280;51094;53.864;27.676;2024-03-02T12:31:04;99715.72;;;19.48;28.63
64679;BME280;51094;53.864;27.676;2024-03-02T12:33:31;99698.94;;;19.14;30.03
64679;BME280;51094;53.864;27.676;2024-03-02T12:35:59;99663.78;;;19.49;29.32
64679;BME280;51094;53.864;27.676;2024-03-02T12:38:26;99686.19;;;20.05;28.70
64679;BME280;51094;53.864;27.676;2024-03-02T12:40:53;99724.19;;;20.54;27.25
64679;BME280;51094;53.864;27.676;2024-03-02T12:43:30;99737.22;;;21.30;27.38
64679;BME280;51094;53.864;27.676;2024-03-02T12:45:58;99712.16;;;21.89;27.46
64679;BME280;51094;53.864;27.676;2024-03-02T12:48:26;99671.28;;;21.84;27.15
64679;BME280;51094;53.864;27.676;2024-03-02T12:50:56;99709.16;;;21.92;25.49
64679;BME280;51094;53.864;27.676;2024-03-02T12:53:29;99711.72;;;21.05;26.11
64679;BME280;51094;53.864;27.676;2024-03-02T12:55:58;99711.03;;;20.70;27.18
64679;BME280;51094;53.864;27.676;2024-03-02T12:58:26;99710.44;;;20.42;28.11
64679;BME280;51094;53.864;27.676;2024-03-02T13:01:09;99713.88;;;20.01;28.89
64679;BME280;51094;53.864;27.676;2024-03-02T13:03:47;99673.59;;;18.77;29.81
64679;BME280;51094;53.864;27.676;2024-03-02T13:06:15;99707.84;;;18.95;30.02
64679;BME280;51094;53.864;27.676;2024-03-02T13:08:45;99733.97;;;19.50;29.49
64679;BME280;51094;53.864;27.676;2024-03-02T13:11:15;99682.88;;;20.45;27.83
64679;BME280;51094;53.864;27.676;2024-03-02T13:13:45;99712.81;;;20.62;26.88
64679;BME280;51094;53.864;27.676;2024-03-02T13:16:12;99706.72;;;19.59;27.70
64679;BME280;51094;53.864;27.676;2024-03-02T13:18:40;99686.09;;;17.66;30.41